createdAt,value
2022-10-28T00:01:13.757Z,13.40
2022-10-28T00:03:57.090Z,13.35
2022-10-28T00:06:30.175Z,13.42
2022-10-28T00:08:57.571Z,13.43
2022-10-28T00:11:32.469Z,13.42
2022-10-28T00:14:01.387Z,13.51
2022-10-28T00:16:30.369Z,13.58
2022-10-28T00:19:01.926Z,13.57
2022-10-28T00:21:31.819Z,13.62
2022-10-28T00:23:59.143Z,13.60
2022-10-28T00:26:30.770Z,13.64
2022-10-28T00:28:58.360Z,13.67
2022-10-28T00:31:33.341Z,13.66
2022-10-28T00:34:01.247Z,13.63
2022-10-28T00:36:33.794Z,13.69
2022-10-28T00:39:02.078Z,13.72
2022-10-28T00:41:31.296Z,13.81
2022-10-28T00:44:00.490Z,13.74
2022-10-28T00:46:49.222Z,14.06
2022-10-28T00:49:26.893Z,13.88
2022-10-28T00:51:58.920Z,13.91
2022-10-28T00:54:26.101Z,13.89
2022-10-28T00:56:57.771Z,13.94
2022-10-28T00:59:31.725Z,13.95
2022-10-28T01:01:58.814Z,14.00
2022-10-28T01:04:28.088Z,14.02
2022-10-28T01:06:56.117Z,14.03
2022-10-28T01:09:22.795Z,14.09
2022-10-28T01:12:14.415Z,14.13
2022-10-28T01:14:51.463Z,14.12
2022-10-28T01:17:54.533Z,14.18
2022-10-28T01:20:48.321Z,14.19
2022-10-28T01:23:36.256Z,14.27
2022-10-28T01:26:21.543Z,14.31
2022-10-28T01:29:30.337Z,14.36
2022-10-28T01:32:03.412Z,14.31
2022-10-28T01:34:38.759Z,14.41
2022-10-28T01:37:14.132Z,14.35
2022-10-28T01:39:54.722Z,14.33
2022-10-28T01:42:24.055Z,14.32
2022-10-28T01:45:00.138Z,14.37
2022-10-28T01:47:36.266Z,14.32
2022-10-28T01:50:08.614Z,14.34
2022-10-28T01:52:37.826Z,14.34
2022-10-28T01:55:23.579Z,14.35
2022-10-28T01:57:52.532Z,14.36
2022-10-28T02:00:19.281Z,14.37
2022-10-28T02:02:50.508Z,14.39
2022-10-28T02:05:35.767Z,14.42
2022-10-28T02:08:15.835Z,14.43
2022-10-28T02:10:48.909Z,14.44
2022-10-28T02:13:16.811Z,14.52
2022-10-28T02:16:03.400Z,14.72
2022-10-28T02:18:49.145Z,14.88
2022-10-28T02:21:40.370Z,14.81
2022-10-28T02:24:15.583Z,14.72
2022-10-28T02:26:54.490Z,14.76
2022-10-28T02:29:32.149Z,14.70
2022-10-28T02:32:05.972Z,14.73
2022-10-28T02:34:35.649Z,14.79
2022-10-28T02:37:08.635Z,14.86
2022-10-28T02:39:40.881Z,14.91
2022-10-28T02:42:10.830Z,14.97
2022-10-28T02:44:47.169Z,14.97
2022-10-28T02:47:19.874Z,15.01
2022-10-28T02:49:56.003Z,15.21
2022-10-28T02:52:28.150Z,15.21
2022-10-28T02:54:57.432Z,15.29
2022-10-28T02:57:26.924Z,15.29
2022-10-28T03:00:32.827Z,15.37
2022-10-28T03:02:59.480Z,15.51
2022-10-28T03:05:25.815Z,15.54
2022-10-28T03:07:55.013Z,15.61
2022-10-28T03:10:23.668Z,15.59
2022-10-28T03:12:49.997Z,15.62
2022-10-28T03:15:16.450Z,15.64
2022-10-28T03:17:42.903Z,15.70
2022-10-28T03:20:12.499Z,15.65
2022-10-28T03:22:38.923Z,15.61
2022-10-28T03:25:05.724Z,15.73
2022-10-28T03:27:32.050Z,15.81
2022-10-28T03:29:58.506Z,15.87
2022-10-28T03:32:24.853Z,15.89
2022-10-28T03:34:51.271Z,15.91
2022-10-28T03:37:17.697Z,15.94
2022-10-28T03:39:46.378Z,15.94
2022-10-28T03:42:12.969Z,15.90
2022-10-28T03:44:39.367Z,15.86
2022-10-28T03:47:05.748Z,15.89
2022-10-28T03:49:34.656Z,15.91
2022-10-28T03:52:01.233Z,15.89
2022-10-28T03:54:32.425Z,15.80
2022-10-28T03:56:58.892Z,15.83
2022-10-28T03:59:25.380Z,15.93
2022-10-28T04:01:51.909Z,15.94
2022-10-28T04:04:18.356Z,15.91
2022-10-28T04:06:47.282Z,15.77
2022-10-28T04:09:13.719Z,15.72
2022-10-28T04:11:40.090Z,15.65
2022-10-28T04:14:06.511Z,15.69
2022-10-28T04:16:32.935Z,15.63
2022-10-28T04:18:59.394Z,15.60
2022-10-28T04:21:28.471Z,15.62
2022-10-28T04:23:54.820Z,15.58
2022-10-28T04:26:21.229Z,15.58
2022-10-28T04:28:47.631Z,15.57
2022-10-28T04:31:14.070Z,15.59
2022-10-28T04:33:41.316Z,15.61
2022-10-28T04:36:08.077Z,15.62
2022-10-28T04:38:34.449Z,15.64
2022-10-28T04:41:00.965Z,15.59
2022-10-28T04:43:29.521Z,15.44
2022-10-28T04:45:55.948Z,15.35
2022-10-28T04:48:22.347Z,15.24
2022-10-28T04:50:49.557Z,15.17
2022-10-28T04:53:15.925Z,15.10
2022-10-28T04:55:42.300Z,15.01
2022-10-28T04:58:09.643Z,14.93
2022-10-28T05:00:36.039Z,14.84
2022-10-28T05:03:05.360Z,14.76
2022-10-28T05:05:34.241Z,14.65
2022-10-28T05:08:00.649Z,14.57
2022-10-28T05:10:27.055Z,14.49
2022-10-28T05:12:53.616Z,14.44
2022-10-28T05:15:20.026Z,14.42
2022-10-28T05:17:47.279Z,14.37
2022-10-28T05:20:19.112Z,14.39
2022-10-28T05:22:53.015Z,14.44
2022-10-28T05:25:20.667Z,14.40
2022-10-28T05:27:47.448Z,14.45
2022-10-28T05:30:14.237Z,14.31
2022-10-28T05:32:43.279Z,14.24
2022-10-28T05:35:10.609Z,14.20
2022-10-28T05:37:42.048Z,14.16
2022-10-28T05:40:09.284Z,14.28
2022-10-28T05:42:41.723Z,14.30
2022-10-28T05:45:09.453Z,14.40
2022-10-28T05:47:39.200Z,14.36
2022-10-28T05:50:06.972Z,14.45
2022-10-28T05:52:33.406Z,14.59
2022-10-28T05:54:59.791Z,14.42
2022-10-28T05:57:26.249Z,14.36
2022-10-28T05:59:52.697Z,14.38
2022-10-28T06:02:19.305Z,14.52
2022-10-28T06:04:48.153Z,14.54
2022-10-28T06:07:16.768Z,14.76
2022-10-28T06:09:43.183Z,14.80
2022-10-28T06:12:08.133Z,14.81
2022-10-28T06:14:34.571Z,14.85
2022-10-28T06:17:03.511Z,14.98
2022-10-28T06:19:29.957Z,14.95
2022-10-28T06:21:56.317Z,14.93
2022-10-28T06:24:25.896Z,14.98
2022-10-28T06:26:53.581Z,14.93
2022-10-28T06:29:20.167Z,15.02
2022-10-28T06:31:46.608Z,15.02
2022-10-28T06:34:13.093Z,15.09
2022-10-28T06:36:39.478Z,15.13
2022-10-28T06:39:08.169Z,15.13
2022-10-28T06:41:34.569Z,15.14
2022-10-28T06:44:01.134Z,15.16
2022-10-28T06:46:27.762Z,15.21
2022-10-28T06:48:58.288Z,15.17
2022-10-28T06:51:25.353Z,15.14
2022-10-28T06:53:56.310Z,15.15
2022-10-28T06:56:22.888Z,15.17
2022-10-28T06:58:53.808Z,15.22
2022-10-28T07:01:20.516Z,15.24
2022-10-28T07:03:48.373Z,15.30
2022-10-28T07:06:16.509Z,15.35
2022-10-28T07:08:43.031Z,15.35
2022-10-28T07:11:09.463Z,15.40
2022-10-28T07:13:35.871Z,15.43
2022-10-28T07:16:02.478Z,15.45
2022-10-28T07:18:31.888Z,15.48
2022-10-28T07:20:59.939Z,15.51
2022-10-28T07:23:26.808Z,15.50
2022-10-28T07:25:56.817Z,15.57
2022-10-28T07:28:25.073Z,15.59
2022-10-28T07:30:51.855Z,15.61
2022-10-28T07:33:20.763Z,15.62
2022-10-28T07:35:47.184Z,15.66
2022-10-28T07:38:16.198Z,15.74
2022-10-28T07:40:44.881Z,15.80
2022-10-28T07:43:11.274Z,15.80
2022-10-28T07:45:38.451Z,15.81
2022-10-28T07:48:05.775Z,15.81
2022-10-28T07:50:32.284Z,15.84
2022-10-28T07:52:59.930Z,15.86
2022-10-28T07:55:29.726Z,15.92
2022-10-28T07:57:56.552Z,16.05
2022-10-28T08:00:23.245Z,16.17
2022-10-28T08:02:50.114Z,16.16
2022-10-28T08:05:16.644Z,16.20
2022-10-28T08:07:43.146Z,16.23
2022-10-28T08:10:09.587Z,16.34
2022-10-28T08:12:38.414Z,16.36
2022-10-28T08:15:06.056Z,16.41
2022-10-28T08:17:32.475Z,16.51
2022-10-28T08:19:58.860Z,16.50
2022-10-28T08:22:25.566Z,16.50
2022-10-28T08:24:51.941Z,16.60
2022-10-28T08:27:18.327Z,16.74
2022-10-28T08:29:49.603Z,16.79
2022-10-28T08:32:16.086Z,16.85
2022-10-28T08:34:43.700Z,16.92
2022-10-28T08:37:10.555Z,17.02
2022-10-28T08:39:36.982Z,17.06
2022-10-28T08:42:22.468Z,17.07
2022-10-28T08:44:48.822Z,17.13
2022-10-28T08:47:15.172Z,17.15
2022-10-28T08:49:49.217Z,17.23
2022-10-28T08:52:43.726Z,17.31
2022-10-28T08:55:23.838Z,17.37
2022-10-28T08:57:59.342Z,17.43
2022-10-28T09:00:29.100Z,17.47
2022-10-28T09:03:11.099Z,17.48
2022-10-28T09:05:39.789Z,17.52
2022-10-28T09:08:06.843Z,17.50
2022-10-28T09:11:01.699Z,17.57
2022-10-28T09:13:54.515Z,17.61
2022-10-28T09:16:52.076Z,17.65
2022-10-28T09:19:38.613Z,17.73
2022-10-28T09:22:19.946Z,17.79
2022-10-28T09:24:55.496Z,17.86
2022-10-28T09:27:21.794Z,17.88
2022-10-28T09:30:05.303Z,17.97
2022-10-28T09:32:51.255Z,17.99
2022-10-28T09:35:23.220Z,18.03
2022-10-28T09:37:52.582Z,18.05
2022-10-28T09:40:29.616Z,18.13
2022-10-28T09:43:08.189Z,18.10
2022-10-28T09:45:43.550Z,18.10
2022-10-28T09:48:33.910Z,18.08
2022-10-28T09:51:00.997Z,18.04
2022-10-28T09:53:44.866Z,18.07
2022-10-28T09:56:11.410Z,18.16
2022-10-28T09:58:47.074Z,18.25
2022-10-28T10:01:15.167Z,18.32
2022-10-28T10:03:41.797Z,18.33
2022-10-28T10:06:25.954Z,18.32
2022-10-28T10:08:55.079Z,18.39
2022-10-28T10:11:24.145Z,18.52
2022-10-28T10:13:52.555Z,18.64
2022-10-28T10:16:41.293Z,18.59
2022-10-28T10:19:09.396Z,18.61
2022-10-28T10:21:50.372Z,18.64
2022-10-28T10:24:31.769Z,18.77
2022-10-28T10:27:25.623Z,18.96
2022-10-28T10:29:53.900Z,19.03
2022-10-28T10:32:30.483Z,19.15
2022-10-28T10:35:02.650Z,19.20
2022-10-28T10:37:33.273Z,19.30
2022-10-28T10:40:18.447Z,19.30
2022-10-28T10:43:09.757Z,19.43
2022-10-28T10:45:34.900Z,19.58
2022-10-28T10:48:21.714Z,19.63
2022-10-28T10:50:49.865Z,19.70
2022-10-28T10:53:30.749Z,19.64
2022-10-28T10:56:05.896Z,19.60
2022-10-28T10:58:40.467Z,19.58
2022-10-28T11:01:09.482Z,19.53
2022-10-28T11:03:39.828Z,19.69
2022-10-28T11:06:23.195Z,19.75
2022-10-28T11:08:56.498Z,19.80
2022-10-28T11:11:32.111Z,19.78
2022-10-28T11:14:22.682Z,19.95
2022-10-28T11:16:54.444Z,19.84
2022-10-28T11:19:21.819Z,20.03
2022-10-28T11:22:01.531Z,20.06
2022-10-28T11:24:44.875Z,20.06
2022-10-28T11:27:45.616Z,20.20
2022-10-28T11:30:17.535Z,20.10
2022-10-28T11:33:14.770Z,20.13
2022-10-28T11:35:54.311Z,20.10
2022-10-28T11:38:41.975Z,20.12
2022-10-28T11:41:17.000Z,20.18
2022-10-28T11:43:54.343Z,20.23
2022-10-28T11:46:46.877Z,20.18
2022-10-28T11:49:31.794Z,20.15
2022-10-28T11:52:13.507Z,20.11
2022-10-28T11:55:01.702Z,20.15
2022-10-28T11:57:39.495Z,20.23
2022-10-28T12:00:23.864Z,20.23
2022-10-28T12:03:03.926Z,20.27
2022-10-28T12:05:47.196Z,20.34
2022-10-28T12:08:32.920Z,20.38
2022-10-28T12:11:44.126Z,20.40
2022-10-28T12:14:22.246Z,20.33
2022-10-28T12:16:58.389Z,20.33
2022-10-28T12:19:31.457Z,20.36
2022-10-28T12:22:14.423Z,20.32
2022-10-28T12:24:44.645Z,20.40
2022-10-28T12:27:23.134Z,20.49
2022-10-28T12:29:54.965Z,20.45
2022-10-28T12:32:28.301Z,20.42
2022-10-28T12:35:02.580Z,20.46
2022-10-28T12:37:42.061Z,20.45
2022-10-28T12:40:16.983Z,20.48
2022-10-28T12:42:49.882Z,20.55
2022-10-28T12:45:21.286Z,20.55
2022-10-28T12:48:24.314Z,20.67
2022-10-28T12:51:00.984Z,20.79
2022-10-28T12:53:52.820Z,20.95
2022-10-28T12:56:28.285Z,21.00
2022-10-28T12:59:06.466Z,21.19
2022-10-28T13:01:35.097Z,21.32
2022-10-28T13:04:02.034Z,21.41
2022-10-28T13:06:53.642Z,21.68
2022-10-28T13:09:38.788Z,21.75
2022-10-28T13:12:30.383Z,21.66
2022-10-28T13:15:37.843Z,21.44
2022-10-28T13:18:22.992Z,21.33
2022-10-28T13:21:29.144Z,21.31
2022-10-28T13:23:59.031Z,21.33
2022-10-28T13:26:27.876Z,21.33
2022-10-28T13:28:57.924Z,21.35
2022-10-28T13:31:45.059Z,21.38
2022-10-28T13:34:19.889Z,21.44
2022-10-28T13:37:03.360Z,21.51
2022-10-28T13:39:29.728Z,21.53
2022-10-28T13:42:23.373Z,21.60
2022-10-28T13:44:58.657Z,21.62
2022-10-28T13:47:35.816Z,21.64
2022-10-28T13:50:08.662Z,21.63
2022-10-28T13:52:46.263Z,21.71
2022-10-28T13:55:53.984Z,21.65
2022-10-28T13:58:26.912Z,21.70
2022-10-28T14:00:54.719Z,21.76
2022-10-28T14:03:28.918Z,21.78
2022-10-28T14:06:00.733Z,21.77
2022-10-28T14:08:33.548Z,21.83
2022-10-28T14:11:05.227Z,21.81
2022-10-28T14:13:34.934Z,21.77
2022-10-28T14:16:31.493Z,21.78
2022-10-28T14:19:16.438Z,21.73
2022-10-28T14:22:03.251Z,21.80
2022-10-28T14:24:42.904Z,21.77
2022-10-28T14:27:09.789Z,21.76
2022-10-28T14:30:06.509Z,21.78
2022-10-28T14:32:32.952Z,21.73
2022-10-28T14:35:02.159Z,21.73
2022-10-28T14:37:56.662Z,21.73
2022-10-28T14:40:24.778Z,21.72
2022-10-28T14:43:09.797Z,21.69
2022-10-28T14:46:09.546Z,21.63
2022-10-28T14:49:02.040Z,21.59
2022-10-28T14:51:40.158Z,21.59
2022-10-28T14:54:16.305Z,21.47
2022-10-28T14:56:43.771Z,21.57
2022-10-28T14:59:31.731Z,21.53
2022-10-28T15:02:04.355Z,21.52
2022-10-28T15:04:34.543Z,21.45
2022-10-28T15:07:04.096Z,21.36
2022-10-28T15:09:34.953Z,21.31
2022-10-28T15:12:06.542Z,21.28
2022-10-28T15:14:38.168Z,21.26
2022-10-28T15:17:19.841Z,21.33
2022-10-28T15:19:48.763Z,21.27
2022-10-28T15:22:22.545Z,21.12
2022-10-28T15:24:53.493Z,21.08
2022-10-28T15:27:20.748Z,20.90
2022-10-28T15:29:48.871Z,20.76
2022-10-28T15:32:26.301Z,20.65
2022-10-28T15:34:53.089Z,20.51
2022-10-28T15:37:22.803Z,20.37
2022-10-28T15:39:52.339Z,20.31
2022-10-28T15:42:31.411Z,20.23
2022-10-28T15:44:58.968Z,20.22
2022-10-28T15:47:36.022Z,20.15
2022-10-28T15:50:19.913Z,20.07
2022-10-28T15:52:53.482Z,19.99
2022-10-28T15:55:23.789Z,20.00
2022-10-28T15:58:19.232Z,19.88
2022-10-28T16:00:57.059Z,19.81
2022-10-28T16:03:39.715Z,19.77
2022-10-28T16:06:19.390Z,19.72
2022-10-28T16:08:46.179Z,19.75
2022-10-28T16:11:25.144Z,19.71
2022-10-28T16:13:51.646Z,19.62
2022-10-28T16:16:29.935Z,19.54
2022-10-28T16:19:08.583Z,19.58
2022-10-28T16:21:36.616Z,19.50
2022-10-28T16:24:03.797Z,19.49
2022-10-28T16:26:33.264Z,19.40
2022-10-28T16:28:59.754Z,19.34
2022-10-28T16:31:29.112Z,19.35
2022-10-28T16:33:58.317Z,19.24
2022-10-28T16:36:28.367Z,19.20
2022-10-28T16:38:54.908Z,19.15
2022-10-28T16:41:21.615Z,19.09
2022-10-28T16:43:48.043Z,19.12
2022-10-28T16:46:14.913Z,19.12
2022-10-28T16:48:41.402Z,18.92
2022-10-28T16:51:25.972Z,18.81
2022-10-28T16:53:54.505Z,18.73
2022-10-28T16:56:20.910Z,18.62
2022-10-28T16:58:47.294Z,18.47
2022-10-28T17:01:22.819Z,18.39
2022-10-28T17:03:49.316Z,18.28
2022-10-28T17:06:15.706Z,18.19
2022-10-28T17:09:01.852Z,18.12
2022-10-28T17:11:28.729Z,18.06
2022-10-28T17:13:57.814Z,18.05
2022-10-28T17:16:25.302Z,18.01
2022-10-28T17:18:51.715Z,17.99
2022-10-28T17:21:18.619Z,17.89
2022-10-28T17:23:45.030Z,17.93
2022-10-28T17:26:11.544Z,17.83
2022-10-28T17:28:38.048Z,17.74
2022-10-28T17:31:06.147Z,17.83
2022-10-28T17:33:33.150Z,17.80
2022-10-28T17:36:09.052Z,17.75
2022-10-28T17:38:35.800Z,17.76
2022-10-28T17:41:02.310Z,17.76
2022-10-28T17:43:28.859Z,17.81
2022-10-28T17:46:07.994Z,17.71
2022-10-28T17:48:34.883Z,17.63
2022-10-28T17:51:01.533Z,17.61
2022-10-28T17:53:27.960Z,17.48
2022-10-28T17:56:01.068Z,17.36
2022-10-28T17:58:28.008Z,17.28
2022-10-28T18:00:59.430Z,17.20
2022-10-28T18:03:26.645Z,17.16
2022-10-28T18:05:53.128Z,17.10
2022-10-28T18:08:22.848Z,17.12
2022-10-28T18:10:57.374Z,17.03
2022-10-28T18:13:28.154Z,17.01
2022-10-28T18:16:03.145Z,16.99
2022-10-28T18:18:38.984Z,16.98
2022-10-28T18:21:09.063Z,16.94
2022-10-28T18:23:35.520Z,16.89
2022-10-28T18:26:12.876Z,16.87
2022-10-28T18:28:40.882Z,16.81
2022-10-28T18:31:14.231Z,16.80
2022-10-28T18:33:43.132Z,16.73
2022-10-28T18:36:15.688Z,16.68
2022-10-28T18:38:42.201Z,16.62
2022-10-28T18:41:15.925Z,16.57
2022-10-28T18:43:42.595Z,16.54
2022-10-28T18:46:09.353Z,16.49
2022-10-28T18:48:36.334Z,16.48
2022-10-28T18:51:06.781Z,16.48
2022-10-28T18:53:42.584Z,16.36
2022-10-28T18:56:31.061Z,16.31
2022-10-28T18:59:03.095Z,16.28
2022-10-28T19:01:32.984Z,16.25
2022-10-28T19:04:01.458Z,16.22
2022-10-28T19:06:32.127Z,16.21
2022-10-28T19:09:01.111Z,16.25
2022-10-28T19:11:31.481Z,16.22
2022-10-28T19:14:04.836Z,16.24
2022-10-28T19:16:35.116Z,16.27
2022-10-28T19:19:04.253Z,16.21
2022-10-28T19:21:31.135Z,16.24
2022-10-28T19:23:57.685Z,16.26
2022-10-28T19:26:24.327Z,16.20
2022-10-28T19:28:51.767Z,16.26
2022-10-28T19:31:26.253Z,16.18
2022-10-28T19:33:54.230Z,16.09
2022-10-28T19:36:25.705Z,16.04
2022-10-28T19:38:55.678Z,15.98
2022-10-28T19:41:24.430Z,15.90
2022-10-28T19:43:58.749Z,15.84
2022-10-28T19:46:26.946Z,15.78
2022-10-28T19:48:55.459Z,15.74
2022-10-28T19:51:24.335Z,15.66
2022-10-28T19:53:53.233Z,15.61
2022-10-28T19:56:25.630Z,15.55
2022-10-28T19:58:54.565Z,15.51
2022-10-28T20:01:22.966Z,15.53
2022-10-28T20:03:53.685Z,15.45
2022-10-28T20:06:22.596Z,15.41
2022-10-28T20:08:49.880Z,15.38
2022-10-28T20:11:27.531Z,15.31
2022-10-28T20:14:00.783Z,15.32
2022-10-28T20:16:28.184Z,15.26
2022-10-28T20:18:58.187Z,15.24
2022-10-28T20:21:26.688Z,15.26
2022-10-28T20:23:55.130Z,15.17
2022-10-28T20:26:23.937Z,15.12
2022-10-28T20:28:50.702Z,15.11
2022-10-28T20:31:22.352Z,15.10
2022-10-28T20:33:53.686Z,15.03
2022-10-28T20:36:28.841Z,15.00
2022-10-28T20:39:08.686Z,14.99
2022-10-28T20:41:36.589Z,14.99
2022-10-28T20:44:03.787Z,14.98
2022-10-28T20:46:30.495Z,15.01
2022-10-28T20:49:00.761Z,14.99
2022-10-28T20:51:29.611Z,14.92
2022-10-28T20:53:56.285Z,14.98
2022-10-28T20:56:27.685Z,14.98
2022-10-28T20:58:55.659Z,14.86
2022-10-28T21:01:23.668Z,14.87
2022-10-28T21:03:53.739Z,14.89
2022-10-28T21:06:23.195Z,14.80
2022-10-28T21:08:49.658Z,14.87
2022-10-28T21:11:17.366Z,14.87
2022-10-28T21:13:49.060Z,14.78
2022-10-28T21:16:15.448Z,14.74
2022-10-28T21:18:41.896Z,14.69
2022-10-28T21:21:08.382Z,14.64
2022-10-28T21:23:34.774Z,14.61
2022-10-28T21:26:03.739Z,14.59
2022-10-28T21:28:31.855Z,14.58
2022-10-28T21:31:02.482Z,14.70
2022-10-28T21:33:29.745Z,14.60
2022-10-28T21:35:58.157Z,14.75
2022-10-28T21:38:28.643Z,14.66
2022-10-28T21:41:09.541Z,14.56
2022-10-28T21:43:37.733Z,14.52
2022-10-28T21:46:04.915Z,14.46
2022-10-28T21:48:33.514Z,14.44
2022-10-28T21:51:08.493Z,14.49
2022-10-28T21:53:40.913Z,14.40
2022-10-28T21:56:18.206Z,14.45
2022-10-28T21:58:49.507Z,14.45
2022-10-28T22:01:19.273Z,14.48
2022-10-28T22:03:45.834Z,14.44
2022-10-28T22:06:12.306Z,14.45
2022-10-28T22:08:38.701Z,14.44
2022-10-28T22:11:11.158Z,14.41
2022-10-28T22:13:37.676Z,14.42
2022-10-28T22:16:07.604Z,14.40
2022-10-28T22:18:38.574Z,14.37
2022-10-28T22:21:28.997Z,14.33
2022-10-28T22:23:55.561Z,14.38
2022-10-28T22:26:26.318Z,14.35
2022-10-28T22:28:55.071Z,14.25
2022-10-28T22:31:31.421Z,14.24
2022-10-28T22:33:58.481Z,14.24
2022-10-28T22:36:26.919Z,14.20
2022-10-28T22:39:01.149Z,14.20
2022-10-28T22:41:30.123Z,14.18
2022-10-28T22:44:01.531Z,14.15
2022-10-28T22:46:31.125Z,14.14
2022-10-28T22:48:57.809Z,14.06
2022-10-28T22:51:26.753Z,14.01
2022-10-28T22:53:53.751Z,14.00
2022-10-28T22:56:22.065Z,13.98
2022-10-28T22:58:53.198Z,13.92
2022-10-28T23:01:20.540Z,13.90
2022-10-28T23:03:48.876Z,13.88
2022-10-28T23:06:21.010Z,13.82
2022-10-28T23:08:47.560Z,13.71
2022-10-28T23:11:16.020Z,13.72
2022-10-28T23:13:44.804Z,13.83
2022-10-28T23:16:16.373Z,13.79
2022-10-28T23:18:48.050Z,13.77
2022-10-28T23:21:23.413Z,13.73
2022-10-28T23:23:54.388Z,13.75
2022-10-28T23:26:21.464Z,13.76
2022-10-28T23:28:52.623Z,13.90
2022-10-28T23:31:19.280Z,13.94
2022-10-28T23:33:45.746Z,13.88
2022-10-28T23:36:15.676Z,13.96
2022-10-28T23:38:42.145Z,13.98
2022-10-28T23:41:11.133Z,13.95
2022-10-28T23:43:37.799Z,14.03
2022-10-28T23:46:05.207Z,14.04
2022-10-28T23:48:32.056Z,14.06
2022-10-28T23:51:00.781Z,14.03
2022-10-28T23:55:58.625Z,13.93
2022-10-28T23:58:26.114Z,13.90
